sensor_id;sensor_type;location;lat;lon;timestamp;P1;durP1;ratioP1;P2;durP2;ratioP2
42964;SDS011;28604;51.204;22.552;2023-07-02T00:00:30;22.90;;;15.30;;
42964;SDS011;28604;51.204;22.552;2023-07-02T00:03:16;16.10;;;14.38;;
42964;SDS011;28604;51.204;22.552;2023-07-02T00:05:42;18.90;;;13.45;;
42964;SDS011;28604;51.204;22.552;2023-07-02T00:08:08;16.23;;;13.30;;
42964;SDS011;28604;51.204;22.552;2023-07-02T00:10:34;15.57;;;14.02;;
42964;SDS011;28604;51.204;22.552;2023-07-02T00:12:59;16.42;;;13.30;;
42964;SDS011;28604;51.204;22.552;2023-07-02T00:15:25;19.77;;;14.27;;
42964;SDS011;28604;51.204;22.552;2023-07-02T00:17:51;23.60;;;14.30;;
42964;SDS011;28604;51.204;22.552;2023-07-02T00:20:18;17.85;;;14.10;;
42964;SDS011;28604;51.204;22.552;2023-07-02T00:22:45;20.80;;;14.85;;
42964;SDS011;28604;51.204;22.552;2023-07-02T00:25:12;15.57;;;12.15;;
42964;SDS011;28604;51.204;22.552;2023-07-02T00:27:38;22.63;;;15.10;;
42964;SDS011;28604;51.204;22.552;2023-07-02T00:30:04;17.45;;;14.52;;
42964;SDS011;28604;51.204;22.552;2023-07-02T00:32:31;25.27;;;15.93;;
42964;SDS011;28604;51.204;22.552;2023-07-02T00:34:57;23.30;;;15.35;;
42964;SDS011;28604;51.204;22.552;2023-07-02T00:37:24;21.42;;;13.68;;
42964;SDS011;28604;51.204;22.552;2023-07-02T00:39:50;23.13;;;14.55;;
42964;SDS011;28604;51.204;22.552;2023-07-02T00:42:17;26.55;;;14.35;;
42964;SDS011;28604;51.204;22.552;2023-07-02T00:44:43;16.90;;;12.63;;
42964;SDS011;28604;51.204;22.552;2023-07-02T00:47:10;22.95;;;13.02;;
42964;SDS011;28604;51.204;22.552;2023-07-02T00:49:37;18.70;;;14.88;;
42964;SDS011;28604;51.204;22.552;2023-07-02T00:52:04;22.45;;;15.10;;
42964;SDS011;28604;51.204;22.552;2023-07-02T00:54:31;28.13;;;14.77;;
42964;SDS011;28604;51.204;22.552;2023-07-02T00:56:57;18.77;;;14.30;;
42964;SDS011;28604;51.204;22.552;2023-07-02T00:59:28;20.45;;;12.52;;
42964;SDS011;28604;51.204;22.552;2023-07-02T01:01:55;21.08;;;14.90;;
42964;SDS011;28604;51.204;22.552;2023-07-02T01:04:22;21.85;;;13.63;;
42964;SDS011;28604;51.204;22.552;2023-07-02T01:06:53;26.88;;;14.48;;
42964;SDS011;28604;51.204;22.552;2023-07-02T01:09:25;28.52;;;16.20;;
42964;SDS011;28604;51.204;22.552;2023-07-02T01:11:56;22.58;;;13.90;;
42964;SDS011;28604;51.204;22.552;2023-07-02T01:14:31;21.20;;;14.40;;
42964;SDS011;28604;51.204;22.552;2023-07-02T01:16:59;30.45;;;14.85;;
42964;SDS011;28604;51.204;22.552;2023-07-02T01:19:33;24.08;;;14.00;;
42964;SDS011;28604;51.204;22.552;2023-07-02T01:22:23;19.48;;;13.65;;
42964;SDS011;28604;51.204;22.552;2023-07-02T01:24:54;27.38;;;14.32;;
42964;SDS011;28604;51.204;22.552;2023-07-02T01:27:20;23.80;;;15.00;;
42964;SDS011;28604;51.204;22.552;2023-07-02T01:29:47;25.05;;;13.98;;
42964;SDS011;28604;51.204;22.552;2023-07-02T01:32:16;25.23;;;14.52;;
42964;SDS011;28604;51.204;22.552;2023-07-02T01:34:42;27.25;;;15.57;;
42964;SDS011;28604;51.204;22.552;2023-07-02T01:37:15;24.10;;;14.37;;
42964;SDS011;28604;51.204;22.552;2023-07-02T01:39:42;28.55;;;15.85;;
42964;SDS011;28604;51.204;22.552;2023-07-02T01:42:12;28.63;;;16.95;;
42964;SDS011;28604;51.204;22.552;2023-07-02T01:44:46;25.60;;;15.13;;
42964;SDS011;28604;51.204;22.552;2023-07-02T01:47:14;34.17;;;16.80;;
42964;SDS011;28604;51.204;22.552;2023-07-02T01:49:41;27.90;;;15.10;;
42964;SDS011;28604;51.204;22.552;2023-07-02T01:52:07;22.02;;;14.30;;
42964;SDS011;28604;51.204;22.552;2023-07-02T01:54:35;28.38;;;14.35;;
42964;SDS011;28604;51.204;22.552;2023-07-02T01:57:02;27.67;;;15.30;;
42964;SDS011;28604;51.204;22.552;2023-07-02T01:59:28;18.25;;;13.50;;
42964;SDS011;28604;51.204;22.552;2023-07-02T02:01:54;21.85;;;15.07;;
42964;SDS011;28604;51.204;22.552;2023-07-02T02:04:20;20.55;;;14.32;;
42964;SDS011;28604;51.204;22.552;2023-07-02T02:06:46;23.25;;;14.82;;
42964;SDS011;28604;51.204;22.552;2023-07-02T02:09:12;19.90;;;15.73;;
42964;SDS011;28604;51.204;22.552;2023-07-02T02:11:38;26.40;;;15.82;;
42964;SDS011;28604;51.204;22.552;2023-07-02T02:14:06;15.27;;;11.85;;
42964;SDS011;28604;51.204;22.552;2023-07-02T02:16:32;31.70;;;15.80;;
42964;SDS011;28604;51.204;22.552;2023-07-02T02:19:02;23.05;;;15.02;;
42964;SDS011;28604;51.204;22.552;2023-07-02T02:21:28;18.30;;;13.10;;
42964;SDS011;28604;51.204;22.552;2023-07-02T02:23:55;17.27;;;14.48;;
42964;SDS011;28604;51.204;22.552;2023-07-02T02:26:21;26.83;;;17.23;;
42964;SDS011;28604;51.204;22.552;2023-07-02T02:28:48;22.63;;;14.82;;
42964;SDS011;28604;51.204;22.552;2023-07-02T02:31:15;16.63;;;14.40;;
42964;SDS011;28604;51.204;22.552;2023-07-02T02:33:41;25.92;;;15.02;;
42964;SDS011;28604;51.204;22.552;2023-07-02T02:36:07;29.52;;;16.05;;
42964;SDS011;28604;51.204;22.552;2023-07-02T02:38:34;15.90;;;13.18;;
42964;SDS011;28604;51.204;22.552;2023-07-02T02:41:01;29.60;;;15.18;;
42964;SDS011;28604;51.204;22.552;2023-07-02T02:43:31;28.38;;;14.93;;
42964;SDS011;28604;51.204;22.552;2023-07-02T02:45:57;29.25;;;15.90;;
42964;SDS011;28604;51.204;22.552;2023-07-02T02:48:23;19.38;;;15.95;;
42964;SDS011;28604;51.204;22.552;2023-07-02T02:50:49;29.13;;;16.83;;
42964;SDS011;28604;51.204;22.552;2023-07-02T02:53:16;25.25;;;15.05;;
42964;SDS011;28604;51.204;22.552;2023-07-02T02:55:42;29.30;;;16.52;;
42964;SDS011;28604;51.204;22.552;2023-07-02T02:58:08;21.08;;;16.13;;
42964;SDS011;28604;51.204;22.552;2023-07-02T03:00:34;24.23;;;16.30;;
42964;SDS011;28604;51.204;22.552;2023-07-02T03:03:00;31.45;;;15.57;;
42964;SDS011;28604;51.204;22.552;2023-07-02T03:05:26;23.88;;;16.50;;
42964;SDS011;28604;51.204;22.552;2023-07-02T03:07:52;22.20;;;16.17;;
42964;SDS011;28604;51.204;22.552;2023-07-02T03:10:18;18.45;;;14.77;;
42964;SDS011;28604;51.204;22.552;2023-07-02T03:12:44;27.98;;;15.68;;
42964;SDS011;28604;51.204;22.552;2023-07-02T03:15:10;16.00;;;14.05;;
42964;SDS011;28604;51.204;22.552;2023-07-02T03:17:36;18.52;;;15.68;;
42964;SDS011;28604;51.204;22.552;2023-07-02T03:20:03;18.27;;;15.82;;
42964;SDS011;28604;51.204;22.552;2023-07-02T03:22:30;20.40;;;15.93;;
42964;SDS011;28604;51.204;22.552;2023-07-02T03:24:55;28.58;;;15.60;;
42964;SDS011;28604;51.204;22.552;2023-07-02T03:27:22;27.80;;;15.88;;
42964;SDS011;28604;51.204;22.552;2023-07-02T03:29:48;30.23;;;16.15;;
42964;SDS011;28604;51.204;22.552;2023-07-02T03:32:14;20.13;;;14.93;;
42964;SDS011;28604;51.204;22.552;2023-07-02T03:34:40;25.30;;;15.90;;
42964;SDS011;28604;51.204;22.552;2023-07-02T03:37:07;29.70;;;15.68;;
42964;SDS011;28604;51.204;22.552;2023-07-02T03:39:33;25.45;;;16.40;;
42964;SDS011;28604;51.204;22.552;2023-07-02T03:41:59;21.70;;;13.57;;
42964;SDS011;28604;51.204;22.552;2023-07-02T03:44:25;24.88;;;16.00;;
42964;SDS011;28604;51.204;22.552;2023-07-02T03:46:51;21.85;;;14.52;;
42964;SDS011;28604;51.204;22.552;2023-07-02T03:49:16;23.02;;;15.70;;
42964;SDS011;28604;51.204;22.552;2023-07-02T03:51:42;25.17;;;16.70;;
42964;SDS011;28604;51.204;22.552;2023-07-02T03:54:08;23.42;;;15.43;;
42964;SDS011;28604;51.204;22.552;2023-07-02T03:56:34;27.35;;;15.57;;
42964;SDS011;28604;51.204;22.552;2023-07-02T03:59:00;25.40;;;15.05;;
42964;SDS011;28604;51.204;22.552;2023-07-02T04:01:26;23.88;;;13.02;;
42964;SDS011;28604;51.204;22.552;2023-07-02T04:03:52;21.15;;;15.07;;
42964;SDS011;28604;51.204;22.552;2023-07-02T04:06:19;23.98;;;15.23;;
42964;SDS011;28604;51.204;22.552;2023-07-02T04:08:45;26.58;;;16.38;;
42964;SDS011;28604;51.204;22.552;2023-07-02T04:11:11;20.08;;;17.00;;
42964;SDS011;28604;51.204;22.552;2023-07-02T04:13:38;26.00;;;16.85;;
42964;SDS011;28604;51.204;22.552;2023-07-02T04:16:05;28.90;;;14.57;;
42964;SDS011;28604;51.204;22.552;2023-07-02T04:18:31;27.92;;;15.07;;
42964;SDS011;28604;51.204;22.552;2023-07-02T04:20:57;20.83;;;14.05;;
42964;SDS011;28604;51.204;22.552;2023-07-02T04:23:24;26.30;;;15.38;;
42964;SDS011;28604;51.204;22.552;2023-07-02T04:25:50;21.38;;;16.20;;
42964;SDS011;28604;51.204;22.552;2023-07-02T04:28:16;24.17;;;16.48;;
42964;SDS011;28604;51.204;22.552;2023-07-02T04:30:42;23.85;;;16.40;;
42964;SDS011;28604;51.204;22.552;2023-07-02T04:33:08;16.38;;;14.55;;
42964;SDS011;28604;51.204;22.552;2023-07-02T04:35:34;21.55;;;15.52;;
42964;SDS011;28604;51.204;22.552;2023-07-02T04:38:00;24.75;;;15.77;;
42964;SDS011;28604;51.204;22.552;2023-07-02T04:40:27;21.85;;;15.10;;
42964;SDS011;28604;51.204;22.552;2023-07-02T04:42:53;22.65;;;16.80;;
42964;SDS011;28604;51.204;22.552;2023-07-02T04:45:25;30.65;;;17.30;;
42964;SDS011;28604;51.204;22.552;2023-07-02T04:47:52;24.63;;;16.02;;
42964;SDS011;28604;51.204;22.552;2023-07-02T04:50:18;22.90;;;16.48;;
42964;SDS011;28604;51.204;22.552;2023-07-02T04:52:44;30.83;;;17.00;;
42964;SDS011;28604;51.204;22.552;2023-07-02T04:55:10;29.95;;;17.23;;
42964;SDS011;28604;51.204;22.552;2023-07-02T04:57:36;26.92;;;16.15;;
42964;SDS011;28604;51.204;22.552;2023-07-02T05:00:03;34.78;;;15.65;;
42964;SDS011;28604;51.204;22.552;2023-07-02T05:02:33;21.38;;;16.80;;
42964;SDS011;28604;51.204;22.552;2023-07-02T05:05:00;23.05;;;16.23;;
42964;SDS011;28604;51.204;22.552;2023-07-02T05:07:25;26.10;;;16.88;;
42964;SDS011;28604;51.204;22.552;2023-07-02T05:09:51;20.80;;;16.27;;
42964;SDS011;28604;51.204;22.552;2023-07-02T05:12:18;29.98;;;16.70;;
42964;SDS011;28604;51.204;22.552;2023-07-02T05:14:45;26.35;;;16.73;;
42964;SDS011;28604;51.204;22.552;2023-07-02T05:17:11;26.67;;;13.80;;
42964;SDS011;28604;51.204;22.552;2023-07-02T05:19:40;23.85;;;15.20;;
42964;SDS011;28604;51.204;22.552;2023-07-02T05:22:06;19.80;;;14.18;;
42964;SDS011;28604;51.204;22.552;2023-07-02T05:24:33;17.45;;;12.95;;
42964;SDS011;28604;51.204;22.552;2023-07-02T05:26:59;22.63;;;13.55;;
42964;SDS011;28604;51.204;22.552;2023-07-02T05:29:25;23.85;;;14.02;;
42964;SDS011;28604;51.204;22.552;2023-07-02T05:31:51;19.98;;;13.38;;
42964;SDS011;28604;51.204;22.552;2023-07-02T05:34:17;19.90;;;13.60;;
42964;SDS011;28604;51.204;22.552;2023-07-02T05:36:43;21.33;;;12.63;;
42964;SDS011;28604;51.204;22.552;2023-07-02T05:39:09;19.35;;;14.15;;
42964;SDS011;28604;51.204;22.552;2023-07-02T05:41:35;21.95;;;13.60;;
42964;SDS011;28604;51.204;22.552;2023-07-02T05:44:01;19.77;;;14.05;;
42964;SDS011;28604;51.204;22.552;2023-07-02T05:46:27;19.17;;;12.55;;
42964;SDS011;28604;51.204;22.552;2023-07-02T05:48:53;18.00;;;13.23;;
42964;SDS011;28604;51.204;22.552;2023-07-02T05:51:22;16.83;;;13.32;;
42964;SDS011;28604;51.204;22.552;2023-07-02T05:53:49;18.85;;;13.25;;
42964;SDS011;28604;51.204;22.552;2023-07-02T05:56:16;19.27;;;11.75;;
42964;SDS011;28604;51.204;22.552;2023-07-02T05:58:43;25.35;;;12.50;;
42964;SDS011;28604;51.204;22.552;2023-07-02T06:01:11;13.90;;;11.57;;
42964;SDS011;28604;51.204;22.552;2023-07-02T06:03:37;19.35;;;11.07;;
42964;SDS011;28604;51.204;22.552;2023-07-02T06:06:03;12.60;;;10.95;;
42964;SDS011;28604;51.204;22.552;2023-07-02T06:08:29;14.48;;;11.73;;
42964;SDS011;28604;51.204;22.552;2023-07-02T06:10:54;18.90;;;10.98;;
42964;SDS011;28604;51.204;22.552;2023-07-02T06:13:21;12.32;;;11.02;;
42964;SDS011;28604;51.204;22.552;2023-07-02T06:15:46;14.48;;;10.25;;
42964;SDS011;28604;51.204;22.552;2023-07-02T06:18:13;13.80;;;10.10;;
42964;SDS011;28604;51.204;22.552;2023-07-02T06:20:39;11.45;;;9.43;;
42964;SDS011;28604;51.204;22.552;2023-07-02T06:23:05;13.10;;;9.05;;
42964;SDS011;28604;51.204;22.552;2023-07-02T06:25:30;11.30;;;9.57;;
42964;SDS011;28604;51.204;22.552;2023-07-02T06:27:57;12.25;;;9.02;;
42964;SDS011;28604;51.204;22.552;2023-07-02T06:30:24;15.63;;;8.55;;
42964;SDS011;28604;51.204;22.552;2023-07-02T06:32:51;10.48;;;8.15;;
42964;SDS011;28604;51.204;22.552;2023-07-02T06:35:17;11.48;;;7.80;;
42964;SDS011;28604;51.204;22.552;2023-07-02T06:37:43;16.33;;;9.02;;
42964;SDS011;28604;51.204;22.552;2023-07-02T06:40:09;7.88;;;7.15;;
42964;SDS011;28604;51.204;22.552;2023-07-02T06:42:36;11.15;;;7.78;;
42964;SDS011;28604;51.204;22.552;2023-07-02T06:45:02;9.52;;;7.38;;
42964;SDS011;28604;51.204;22.552;2023-07-02T06:47:28;12.98;;;7.20;;
42964;SDS011;28604;51.204;22.552;2023-07-02T06:49:54;18.08;;;7.63;;
42964;SDS011;28604;51.204;22.552;2023-07-02T06:52:20;10.70;;;6.88;;
42964;SDS011;28604;51.204;22.552;2023-07-02T06:54:46;8.43;;;6.80;;
42964;SDS011;28604;51.204;22.552;2023-07-02T06:57:13;9.98;;;6.28;;
42964;SDS011;28604;51.204;22.552;2023-07-02T06:59:39;9.10;;;6.25;;
42964;SDS011;28604;51.204;22.552;2023-07-02T07:02:05;8.82;;;5.88;;
42964;SDS011;28604;51.204;22.552;2023-07-02T07:04:32;7.93;;;5.82;;
42964;SDS011;28604;51.204;22.552;2023-07-02T07:07:00;5.60;;;5.10;;
42964;SDS011;28604;51.204;22.552;2023-07-02T07:09:28;8.30;;;4.93;;
42964;SDS011;28604;51.204;22.552;2023-07-02T07:11:55;8.40;;;5.47;;
42964;SDS011;28604;51.204;22.552;2023-07-02T07:14:21;5.75;;;4.93;;
42964;SDS011;28604;51.204;22.552;2023-07-02T07:16:48;7.95;;;5.32;;
42964;SDS011;28604;51.204;22.552;2023-07-02T07:19:14;5.80;;;5.30;;
42964;SDS011;28604;51.204;22.552;2023-07-02T07:21:40;8.60;;;5.70;;
42964;SDS011;28604;51.204;22.552;2023-07-02T07:24:07;5.55;;;4.90;;
42964;SDS011;28604;51.204;22.552;2023-07-02T07:26:33;4.97;;;4.57;;
42964;SDS011;28604;51.204;22.552;2023-07-02T07:28:59;6.85;;;4.93;;
42964;SDS011;28604;51.204;22.552;2023-07-02T07:31:25;6.95;;;5.30;;
42964;SDS011;28604;51.204;22.552;2023-07-02T07:33:51;5.82;;;5.32;;
42964;SDS011;28604;51.204;22.552;2023-07-02T07:36:17;5.85;;;4.32;;
42964;SDS011;28604;51.204;22.552;2023-07-02T07:38:43;7.43;;;4.90;;
42964;SDS011;28604;51.204;22.552;2023-07-02T07:41:09;8.02;;;5.47;;
42964;SDS011;28604;51.204;22.552;2023-07-02T07:43:35;5.28;;;4.40;;
42964;SDS011;28604;51.204;22.552;2023-07-02T07:46:01;5.00;;;4.53;;
42964;SDS011;28604;51.204;22.552;2023-07-02T07:48:30;5.60;;;5.07;;
42964;SDS011;28604;51.204;22.552;2023-07-02T07:50:56;8.18;;;5.43;;
42964;SDS011;28604;51.204;22.552;2023-07-02T07:53:22;6.35;;;5.22;;
42964;SDS011;28604;51.204;22.552;2023-07-02T07:55:48;5.57;;;5.07;;
42964;SDS011;28604;51.204;22.552;2023-07-02T07:58:14;8.30;;;5.55;;
42964;SDS011;28604;51.204;22.552;2023-07-02T08:00:40;7.88;;;4.80;;
42964;SDS011;28604;51.204;22.552;2023-07-02T08:03:06;10.18;;;4.90;;
42964;SDS011;28604;51.204;22.552;2023-07-02T08:05:32;7.13;;;4.95;;
42964;SDS011;28604;51.204;22.552;2023-07-02T08:07:58;6.38;;;5.10;;
42964;SDS011;28604;51.204;22.552;2023-07-02T08:10:24;6.53;;;4.70;;
42964;SDS011;28604;51.204;22.552;2023-07-02T08:12:50;5.45;;;5.05;;
42964;SDS011;28604;51.204;22.552;2023-07-02T08:15:20;8.95;;;5.28;;
42964;SDS011;28604;51.204;22.552;2023-07-02T08:17:46;5.85;;;4.68;;
42964;SDS011;28604;51.204;22.552;2023-07-02T08:20:12;7.20;;;4.80;;
42964;SDS011;28604;51.204;22.552;2023-07-02T08:22:38;4.45;;;3.97;;
42964;SDS011;28604;51.204;22.552;2023-07-02T08:25:05;5.68;;;4.72;;
42964;SDS011;28604;51.204;22.552;2023-07-02T08:27:31;4.75;;;4.45;;
42964;SDS011;28604;51.204;22.552;2023-07-02T08:29:57;5.95;;;4.35;;
42964;SDS011;28604;51.204;22.552;2023-07-02T08:32:23;11.55;;;4.95;;
42964;SDS011;28604;51.204;22.552;2023-07-02T08:34:49;5.00;;;4.60;;
42964;SDS011;28604;51.204;22.552;2023-07-02T08:37:16;5.22;;;4.80;;
42964;SDS011;28604;51.204;22.552;2023-07-02T08:39:43;5.65;;;5.00;;
42964;SDS011;28604;51.204;22.552;2023-07-02T08:42:09;7.60;;;5.13;;
42964;SDS011;28604;51.204;22.552;2023-07-02T08:44:35;4.55;;;4.25;;
42964;SDS011;28604;51.204;22.552;2023-07-02T08:47:01;5.30;;;4.45;;
42964;SDS011;28604;51.204;22.552;2023-07-02T08:49:28;5.80;;;4.63;;
42964;SDS011;28604;51.204;22.552;2023-07-02T08:51:54;4.40;;;4.13;;
42964;SDS011;28604;51.204;22.552;2023-07-02T08:54:20;8.20;;;4.70;;
42964;SDS011;28604;51.204;22.552;2023-07-02T08:56:46;5.32;;;4.82;;
42964;SDS011;28604;51.204;22.552;2023-07-02T08:59:12;5.05;;;4.65;;
42964;SDS011;28604;51.204;22.552;2023-07-02T09:04:31;5.70;;;4.63;;
42964;SDS011;28604;51.204;22.552;2023-07-02T09:07:04;6.05;;;4.80;;
42964;SDS011;28604;51.204;22.552;2023-07-02T09:09:47;5.90;;;5.18;;
42964;SDS011;28604;51.204;22.552;2023-07-02T09:12:29;4.90;;;4.40;;
42964;SDS011;28604;51.204;22.552;2023-07-02T09:14:57;6.97;;;4.45;;
42964;SDS011;28604;51.204;22.552;2023-07-02T09:17:32;5.40;;;5.00;;
42964;SDS011;28604;51.204;22.552;2023-07-02T09:20:00;8.45;;;4.90;;
42964;SDS011;28604;51.204;22.552;2023-07-02T09:22:27;4.68;;;4.28;;
42964;SDS011;28604;51.204;22.552;2023-07-02T09:24:54;5.13;;;4.25;;
42964;SDS011;28604;51.204;22.552;2023-07-02T09:27:34;5.60;;;4.38;;
42964;SDS011;28604;51.204;22.552;2023-07-02T09:30:05;4.95;;;4.35;;
42964;SDS011;28604;51.204;22.552;2023-07-02T09:32:39;4.18;;;3.88;;
42964;SDS011;28604;51.204;22.552;2023-07-02T09:35:05;5.13;;;4.78;;
42964;SDS011;28604;51.204;22.552;2023-07-02T09:37:31;8.50;;;4.20;;
42964;SDS011;28604;51.204;22.552;2023-07-02T09:39:58;4.88;;;3.83;;
42964;SDS011;28604;51.204;22.552;2023-07-02T09:42:25;5.45;;;4.10;;
42964;SDS011;28604;51.204;22.552;2023-07-02T09:45:00;5.93;;;4.05;;
42964;SDS011;28604;51.204;22.552;2023-07-02T09:47:27;4.47;;;4.07;;
42964;SDS011;28604;51.204;22.552;2023-07-02T09:49:57;14.77;;;4.90;;
42964;SDS011;28604;51.204;22.552;2023-07-02T09:52:33;4.40;;;4.07;;
42964;SDS011;28604;51.204;22.552;2023-07-02T09:55:00;9.95;;;4.32;;
42964;SDS011;28604;51.204;22.552;2023-07-02T09:57:26;4.75;;;4.35;;
42964;SDS011;28604;51.204;22.552;2023-07-02T09:59:58;4.80;;;4.40;;
42964;SDS011;28604;51.204;22.552;2023-07-02T10:02:25;6.88;;;4.18;;
42964;SDS011;28604;51.204;22.552;2023-07-02T10:04:51;7.45;;;4.18;;
42964;SDS011;28604;51.204;22.552;2023-07-02T10:07:27;3.85;;;3.53;;
42964;SDS011;28604;51.204;22.552;2023-07-02T10:09:54;3.65;;;3.45;;
42964;SDS011;28604;51.204;22.552;2023-07-02T10:12:21;5.63;;;4.05;;
42964;SDS011;28604;51.204;22.552;2023-07-02T10:14:52;9.35;;;4.60;;
42964;SDS011;28604;51.204;22.552;2023-07-02T10:17:28;10.05;;;3.97;;
42964;SDS011;28604;51.204;22.552;2023-07-02T10:20:00;7.18;;;4.32;;
42964;SDS011;28604;51.204;22.552;2023-07-02T10:22:44;4.75;;;4.35;;
42964;SDS011;28604;51.204;22.552;2023-07-02T10:25:23;5.25;;;4.22;;
42964;SDS011;28604;51.204;22.552;2023-07-02T10:27:50;9.70;;;4.32;;
42964;SDS011;28604;51.204;22.552;2023-07-02T10:30:16;6.50;;;4.22;;
42964;SDS011;28604;51.204;22.552;2023-07-02T10:32:42;7.22;;;4.95;;
42964;SDS011;28604;51.204;22.552;2023-07-02T10:35:15;5.60;;;4.15;;
42964;SDS011;28604;51.204;22.552;2023-07-02T10:37:41;6.15;;;4.22;;
42964;SDS011;28604;51.204;22.552;2023-07-02T10:40:08;5.85;;;3.78;;
42964;SDS011;28604;51.204;22.552;2023-07-02T10:42:50;4.35;;;3.92;;
42964;SDS011;28604;51.204;22.552;2023-07-02T10:47:43;4.65;;;3.20;;
42964;SDS011;28604;51.204;22.552;2023-07-02T10:50:19;11.52;;;3.58;;
42964;SDS011;28604;51.204;22.552;2023-07-02T10:52:46;6.57;;;3.40;;
42964;SDS011;28604;51.204;22.552;2023-07-02T10:55:19;3.58;;;3.28;;
42964;SDS011;28604;51.204;22.552;2023-07-02T10:57:45;4.00;;;3.67;;
42964;SDS011;28604;51.204;22.552;2023-07-02T11:00:12;5.75;;;3.45;;
42964;SDS011;28604;51.204;22.552;2023-07-02T11:02:39;5.20;;;3.05;;
42964;SDS011;28604;51.204;22.552;2023-07-02T11:05:06;4.88;;;3.40;;
42964;SDS011;28604;51.204;22.552;2023-07-02T11:07:40;2.78;;;2.65;;
42964;SDS011;28604;51.204;22.552;2023-07-02T11:10:08;8.98;;;3.60;;
42964;SDS011;28604;51.204;22.552;2023-07-02T11:12:35;5.85;;;3.17;;
42964;SDS011;28604;51.204;22.552;2023-07-02T11:15:12;4.97;;;3.13;;
42964;SDS011;28604;51.204;22.552;2023-07-02T11:17:39;3.53;;;3.03;;
42964;SDS011;28604;51.204;22.552;2023-07-02T11:20:13;4.32;;;2.53;;
42964;SDS011;28604;51.204;22.552;2023-07-02T11:22:40;2.70;;;2.22;;
42964;SDS011;28604;51.204;22.552;2023-07-02T11:25:13;4.03;;;2.10;;
42964;SDS011;28604;51.204;22.552;2023-07-02T11:27:43;2.70;;;2.50;;
42964;SDS011;28604;51.204;22.552;2023-07-02T11:30:10;3.92;;;2.42;;
42964;SDS011;28604;51.204;22.552;2023-07-02T11:32:46;2.55;;;2.25;;
42964;SDS011;28604;51.204;22.552;2023-07-02T11:35:14;5.57;;;2.40;;
42964;SDS011;28604;51.204;22.552;2023-07-02T11:37:41;3.90;;;2.60;;
42964;SDS011;28604;51.204;22.552;2023-07-02T11:40:07;2.80;;;2.60;;
42964;SDS011;28604;51.204;22.552;2023-07-02T11:42:34;3.20;;;2.28;;
42964;SDS011;28604;51.204;22.552;2023-07-02T11:45:00;3.35;;;3.05;;
42964;SDS011;28604;51.204;22.552;2023-07-02T11:47:25;4.28;;;3.00;;
42964;SDS011;28604;51.204;22.552;2023-07-02T11:49:53;12.70;;;3.15;;
42964;SDS011;28604;51.204;22.552;2023-07-02T11:52:20;2.75;;;2.58;;
42964;SDS011;28604;51.204;22.552;2023-07-02T11:54:47;4.05;;;2.58;;
42964;SDS011;28604;51.204;22.552;2023-07-02T11:57:13;2.13;;;1.98;;
42964;SDS011;28604;51.204;22.552;2023-07-02T11:59:39;4.35;;;2.90;;
42964;SDS011;28604;51.204;22.552;2023-07-02T12:02:06;5.38;;;2.42;;
42964;SDS011;28604;51.204;22.552;2023-07-02T12:04:32;5.30;;;2.40;;
42964;SDS011;28604;51.204;22.552;2023-07-02T12:06:59;3.50;;;1.98;;
42964;SDS011;28604;51.204;22.552;2023-07-02T12:09:29;10.98;;;2.33;;
42964;SDS011;28604;51.204;22.552;2023-07-02T12:11:55;2.08;;;1.83;;
42964;SDS011;28604;51.204;22.552;2023-07-02T12:14:21;1.10;;;1.10;;
42964;SDS011;28604;51.204;22.552;2023-07-02T12:16:46;3.45;;;1.05;;
42964;SDS011;28604;51.204;22.552;2023-07-02T12:19:13;0.77;;;0.77;;
42964;SDS011;28604;51.204;22.552;2023-07-02T12:21:38;2.63;;;0.70;;
42964;SDS011;28604;51.204;22.552;2023-07-02T12:24:05;1.10;;;0.80;;
42964;SDS011;28604;51.204;22.552;2023-07-02T12:26:37;1.88;;;1.48;;
42964;SDS011;28604;51.204;22.552;2023-07-02T12:29:03;0.90;;;0.90;;
42964;SDS011;28604;51.204;22.552;2023-07-02T12:31:29;4.68;;;1.08;;
42964;SDS011;28604;51.204;22.552;2023-07-02T12:33:56;2.50;;;1.40;;
42964;SDS011;28604;51.204;22.552;2023-07-02T12:36:22;4.65;;;1.33;;
42964;SDS011;28604;51.204;22.552;2023-07-02T12:38:49;2.13;;;0.88;;
42964;SDS011;28604;51.204;22.552;2023-07-02T12:41:14;4.38;;;0.63;;
42964;SDS011;28604;51.204;22.552;2023-07-02T12:43:40;1.80;;;0.55;;
42964;SDS011;28604;51.204;22.552;2023-07-02T12:46:06;1.23;;;0.40;;
42964;SDS011;28604;51.204;22.552;2023-07-02T12:48:33;0.47;;;0.47;;
42964;SDS011;28604;51.204;22.552;2023-07-02T12:50:59;0.52;;;0.40;;
42964;SDS011;28604;51.204;22.552;2023-07-02T12:53:25;2.40;;;0.28;;
42964;SDS011;28604;51.204;22.552;2023-07-02T12:55:52;0.45;;;0.17;;
42964;SDS011;28604;51.204;22.552;2023-07-02T12:58:18;2.40;;;0.50;;
42964;SDS011;28604;51.204;22.552;2023-07-02T13:00:44;0.20;;;0.20;;
42964;SDS011;28604;51.204;22.552;2023-07-02T13:03:11;0.13;;;0.10;;
42964;SDS011;28604;51.204;22.552;2023-07-02T13:05:38;0.35;;;0.22;;
42964;SDS011;28604;51.204;22.552;2023-07-02T13:08:05;0.47;;;0.20;;
42964;SDS011;28604;51.204;22.552;2023-07-02T13:10:32;1.02;;;0.20;;
42964;SDS011;28604;51.204;22.552;2023-07-02T13:12:59;0.57;;;0.20;;
42964;SDS011;28604;51.204;22.552;2023-07-02T13:15:25;1.58;;;0.43;;
42964;SDS011;28604;51.204;22.552;2023-07-02T13:17:52;1.48;;;0.63;;
42964;SDS011;28604;51.204;22.552;2023-07-02T13:20:17;1.60;;;0.43;;
42964;SDS011;28604;51.204;22.552;2023-07-02T13:22:44;1.15;;;0.65;;
42964;SDS011;28604;51.204;22.552;2023-07-02T13:25:09;3.28;;;0.50;;
42964;SDS011;28604;51.204;22.552;2023-07-02T13:27:36;0.85;;;0.52;;
42964;SDS011;28604;51.204;22.552;2023-07-02T13:30:02;2.17;;;0.30;;
42964;SDS011;28604;51.204;22.552;2023-07-02T13:32:29;0.55;;;0.40;;
42964;SDS011;28604;51.204;22.552;2023-07-02T13:34:54;0.50;;;0.50;;
42964;SDS011;28604;51.204;22.552;2023-07-02T13:37:20;0.82;;;0.25;;
42964;SDS011;28604;51.204;22.552;2023-07-02T13:39:47;1.30;;;0.35;;
42964;SDS011;28604;51.204;22.552;2023-07-02T13:42:14;2.47;;;0.40;;
42964;SDS011;28604;51.204;22.552;2023-07-02T13:44:41;0.57;;;0.10;;
42964;SDS011;28604;51.204;22.552;2023-07-02T13:47:07;2.05;;;0.20;;
42964;SDS011;28604;51.204;22.552;2023-07-02T13:49:33;0.20;;;0.15;;
42964;SDS011;28604;51.204;22.552;2023-07-02T13:51:59;0.03;;;0.00;;
42964;SDS011;28604;51.204;22.552;2023-07-02T13:54:25;0.60;;;0.10;;
42964;SDS011;28604;51.204;22.552;2023-07-02T13:56:52;0.47;;;0.00;;
42964;SDS011;28604;51.204;22.552;2023-07-02T13:59:19;0.00;;;0.00;;
42964;SDS011;28604;51.204;22.552;2023-07-02T14:01:46;0.00;;;0.00;;
42964;SDS011;28604;51.204;22.552;2023-07-02T14:04:16;0.00;;;0.00;;
42964;SDS011;28604;51.204;22.552;2023-07-02T14:06:44;0.30;;;0.00;;
42964;SDS011;28604;51.204;22.552;2023-07-02T14:09:09;0.15;;;0.05;;
42964;SDS011;28604;51.204;22.552;2023-07-02T14:11:38;0.17;;;0.00;;
42964;SDS011;28604;51.204;22.552;2023-07-02T14:14:05;1.38;;;0.10;;
42964;SDS011;28604;51.204;22.552;2023-07-02T14:16:31;0.00;;;0.00;;
42964;SDS011;28604;51.204;22.552;2023-07-02T14:18:57;0.20;;;0.00;;
42964;SDS011;28604;51.204;22.552;2023-07-02T14:21:24;1.08;;;0.00;;
42964;SDS011;28604;51.204;22.552;2023-07-02T14:23:50;0.20;;;0.00;;
42964;SDS011;28604;51.204;22.552;2023-07-02T14:26:16;0.38;;;0.00;;
42964;SDS011;28604;51.204;22.552;2023-07-02T14:28:42;1.58;;;0.00;;